Time;durP1;ratioP1;P1;durP2;ratioP2;P2;SDS_P1;SDS_P2;PMS_P1;PMS_P2;Temp;Humidity;BMP_temperature;BMP_pressure;BME280_temperature;BME280_humidity;BME280_pressure;Samples;Min_cycle;Max_cycle;Signal;HPM_P1;HPM_P2
2022/12/04 00:00:26;;;;;;;28.65;9.32;;;1.20;99.90;;;;;;4251233;27;20070;-84
2022/12/04 00:02:29;;;;;;;27.00;9.52;;;0.60;99.90;;;;;;4250903;27;20120;-83
2022/12/04 00:04:32;;;;;;;26.13;10.05;;;1.80;99.90;;;;;;4216767;28;20048;-83
2022/12/04 00:06:34;;;;;;;28.52;10.20;;;1.20;99.90;;;;;;4252779;28;20043;-83
2022/12/04 00:08:36;;;;;;;25.75;9.45;;;0.60;99.90;;;;;;4216961;28;20052;-83
2022/12/04 00:10:42;;;;;;;24.58;9.45;;;0.70;99.90;;;;;;4218277;28;20056;-84
2022/12/04 00:12:44;;;;;;;23.20;8.95;;;0.70;99.90;;;;;;4253177;28;20039;-84
2022/12/04 00:14:45;;;;;;;26.70;9.90;;;0.70;99.90;;;;;;4218947;28;20052;-84
2022/12/04 00:16:46;;;;;;;26.58;9.20;;;1.10;99.90;;;;;;4253283;28;20047;-84
2022/12/04 00:18:48;;;;;;;24.73;9.57;;;0.60;99.90;;;;;;4253258;28;20414;-84
2022/12/04 00:20:50;;;;;;;25.08;10.93;;;0.70;99.90;;;;;;4253491;28;20039;-83
2022/12/04 00:22:52;;;;;;;29.42;10.50;;;-0.30;99.90;;;;;;4235330;28;20043;-83
2022/12/04 00:24:52;;;;;;;26.05;10.48;;;0.60;99.90;;;;;;4235627;28;20048;-84
2022/12/04 00:26:55;;;;;;;31.08;11.75;;;0.60;99.90;;;;;;4253949;28;20070;-83
2022/12/04 00:28:56;;;;;;;27.38;11.55;;;0.60;99.90;;;;;;4234742;28;20082;-84
2022/12/04 00:31:08;;;;;;;28.35;10.40;;;2.10;99.90;;;;;;4252104;28;20403;-84
2022/12/04 00:33:11;;;;;;;26.92;11.02;;;0.60;99.90;;;;;;4235136;28;20086;-84
2022/12/04 00:35:12;;;;;;;28.23;11.88;;;1.60;99.90;;;;;;4235225;28;20164;-84
2022/12/04 00:37:14;;;;;;;30.75;10.93;;;0.60;99.90;;;;;;4254505;27;20055;-84
2022/12/04 00:39:16;;;;;;;30.33;10.57;;;0.60;99.90;;;;;;4254692;27;20047;-84
2022/12/04 00:41:21;;;;;;;32.65;11.73;;;0.60;99.90;;;;;;4236505;28;20044;-84
2022/12/04 00:43:24;;;;;;;30.45;10.38;;;0.70;99.90;;;;;;4237064;28;20130;-84
2022/12/04 00:45:25;;;;;;;27.77;10.65;;;0.60;99.90;;;;;;4236459;28;20050;-84
2022/12/04 00:47:26;;;;;;;29.70;10.85;;;0.60;99.90;;;;;;4237083;28;20114;-84
2022/12/04 00:49:26;;;;;;;28.17;10.23;;;0.60;99.90;;;;;;4236615;28;20075;-84
2022/12/04 00:51:29;;;;;;;31.67;11.63;;;0.10;99.90;;;;;;4254334;27;20143;-84
2022/12/04 00:53:33;;;;;;;29.38;10.23;;;2.10;99.90;;;;;;4236692;28;20481;-84
2022/12/04 00:55:37;;;;;;;32.53;10.73;;;0.50;99.90;;;;;;4254549;27;20471;-84
2022/12/04 00:57:39;;;;;;;29.20;10.23;;;0.70;99.90;;;;;;4236348;28;20059;-84
2022/12/04 00:59:40;;;;;;;32.55;11.02;;;0.30;99.90;;;;;;4219177;28;20526;-83
2022/12/04 01:01:46;;;;;;;28.42;11.40;;;0.60;99.90;;;;;;4236779;28;20522;-84
2022/12/04 01:03:50;;;;;;;30.60;12.95;;;0.50;99.90;;;;;;4237091;28;20056;-84
2022/12/04 01:05:51;;;;;;;31.80;10.15;;;0.40;99.90;;;;;;4219605;28;20052;-83
2022/12/04 01:07:53;;;;;;;31.50;11.85;;;0.30;99.90;;;;;;4219522;28;20048;-83
2022/12/04 01:09:55;;;;;;;29.73;11.48;;;0.20;99.90;;;;;;4220061;28;20051;-83
2022/12/04 01:11:58;;;;;;;32.78;11.00;;;0.20;99.90;;;;;;4237034;28;20075;-83
2022/12/04 01:14:00;;;;;;;28.58;11.13;;;1.40;99.90;;;;;;4236376;28;20127;-83
2022/12/04 01:16:02;;;;;;;28.65;10.70;;;1.30;99.90;;;;;;4236285;28;20043;-83
2022/12/04 01:18:04;;;;;;;31.98;12.13;;;0.10;99.90;;;;;;4236749;28;20112;-83
2022/12/04 01:20:05;;;;;;;30.55;11.60;;;0.00;99.90;;;;;;4237137;28;20048;-83
2022/12/04 01:22:07;;;;;;;34.30;11.55;;;-0.10;99.90;;;;;;4236584;28;20048;-83
2022/12/04 01:24:08;;;;;;;34.17;11.98;;;0.20;99.90;;;;;;4236823;28;20544;-84
2022/12/04 01:26:10;;;;;;;31.83;12.20;;;-0.50;99.90;;;;;;4235998;28;20054;-84
2022/12/04 01:28:11;;;;;;;41.72;14.55;;;-0.40;99.90;;;;;;4254691;27;20043;-83
2022/12/04 01:30:13;;;;;;;39.47;13.20;;;0.00;99.90;;;;;;4236057;28;20099;-84
2022/12/04 01:32:16;;;;;;;37.15;12.80;;;-1.20;99.90;;;;;;4219527;28;20123;-83
2022/12/04 01:34:17;;;;;;;28.77;10.38;;;-0.20;99.90;;;;;;4219025;28;20123;-84
2022/12/04 01:36:22;;;;;;;37.97;13.05;;;0.50;99.90;;;;;;4235677;28;20099;-83
2022/12/04 01:38:24;;;;;;;36.00;11.77;;;-0.10;99.90;;;;;;4254405;27;20408;-83
2022/12/04 01:40:26;;;;;;;28.75;10.98;;;0.60;99.90;;;;;;4253661;27;20049;-83
2022/12/04 01:42:29;;;;;;;36.65;13.85;;;1.30;99.90;;;;;;4254883;27;20043;-83
2022/12/04 01:44:32;;;;;;;31.35;11.48;;;1.00;99.90;;;;;;4235844;28;20042;-83
2022/12/04 01:46:34;;;;;;;35.38;13.73;;;-0.10;99.90;;;;;;4236338;28;20051;-83
2022/12/04 01:48:50;;;;;;;33.33;11.40;;;0.70;99.90;;;;;;4254439;27;20075;-84
2022/12/04 01:50:55;;;;;;;30.00;10.40;;;-0.10;99.90;;;;;;4236274;28;20486;-83
2022/12/04 01:52:59;;;;;;;29.83;10.82;;;0.80;99.90;;;;;;4236465;28;20054;-83
2022/12/04 01:55:02;;;;;;;31.83;11.45;;;0.80;99.90;;;;;;4237313;28;20047;-84
2022/12/04 01:57:12;;;;;;;30.98;11.13;;;0.00;99.90;;;;;;4235914;28;20048;-83
2022/12/04 01:59:17;;;;;;;39.42;11.80;;;0.10;99.90;;;;;;4235920;28;20491;-84
2022/12/04 02:01:20;;;;;;;32.53;11.60;;;1.30;99.90;;;;;;4218938;28;20608;-83
2022/12/04 02:03:21;;;;;;;33.60;11.27;;;-0.40;99.90;;;;;;4236306;28;20156;-84
2022/12/04 02:05:24;;;;;;;29.50;11.15;;;0.00;99.90;;;;;;4236955;28;20058;-83
2022/12/04 02:07:27;;;;;;;29.48;12.05;;;0.10;99.90;;;;;;4236825;28;20377;-83
2022/12/04 02:09:30;;;;;;;30.00;10.75;;;1.30;99.90;;;;;;4236835;28;20036;-83
2022/12/04 02:11:49;;;;;;;29.65;11.77;;;-0.60;99.90;;;;;;4235597;28;20039;-83
2022/12/04 02:14:12;;;;;;;31.38;11.77;;;0.20;99.90;;;;;;4235861;28;20138;-83
2022/12/04 02:16:32;;;;;;;36.05;12.23;;;-0.80;99.90;;;;;;4234871;28;20055;-84
2022/12/04 02:18:45;;;;;;;40.95;11.88;;;0.20;99.90;;;;;;4235787;28;20055;-83
2022/12/04 02:21:03;;;;;;;35.97;12.10;;;0.20;99.90;;;;;;4235448;28;20055;-83
2022/12/04 02:23:49;;;;;;;32.20;10.30;;;0.30;99.90;;;;;;4235705;28;20051;-83
2022/12/04 02:25:59;;;;;;;32.95;12.23;;;0.30;99.90;;;;;;4235323;28;20567;-84
2022/12/04 02:28:32;;;;;;;35.30;11.63;;;0.30;99.90;;;;;;4234315;28;20596;-84
2022/12/04 02:30:38;;;;;;;36.03;10.95;;;0.30;99.90;;;;;;4235966;28;20108;-83
2022/12/04 02:32:42;;;;;;;34.08;12.05;;;1.80;99.90;;;;;;4234904;28;20059;-83
2022/12/04 02:35:03;;;;;;;31.23;12.32;;;1.90;99.90;;;;;;4234816;28;20107;-83
2022/12/04 02:37:28;;;;;;;37.15;11.68;;;0.30;99.90;;;;;;4236357;28;20438;-83
2022/12/04 02:39:58;;;;;;;31.50;11.75;;;1.50;99.90;;;;;;4235694;28;20039;-84
2022/12/04 02:42:11;;;;;;;28.77;11.60;;;-0.80;99.90;;;;;;4217692;28;20145;-84
2022/12/04 02:44:24;;;;;;;33.60;12.13;;;0.90;99.90;;;;;;4235847;28;20039;-84
2022/12/04 02:46:38;;;;;;;32.78;12.52;;;0.30;99.90;;;;;;4235133;28;20044;-84
2022/12/04 02:48:43;;;;;;;36.38;12.68;;;0.30;99.90;;;;;;4234766;28;20122;-84
2022/12/04 02:50:46;;;;;;;28.50;12.07;;;0.30;99.90;;;;;;4246044;27;20062;-84
2022/12/04 02:53:02;;;;;;;35.22;12.73;;;0.30;99.90;;;;;;4253029;27;20031;-84
2022/12/04 02:55:20;;;;;;;37.88;13.65;;;1.00;99.90;;;;;;4235015;28;20075;-84
2022/12/04 02:57:28;;;;;;;32.95;12.88;;;0.30;99.90;;;;;;4235166;28;20052;-84
2022/12/04 02:59:36;;;;;;;40.45;14.88;;;0.60;99.90;;;;;;4252923;27;20059;-84
2022/12/04 03:01:49;;;;;;;35.08;14.50;;;0.30;99.90;;;;;;4234725;28;20040;-84
2022/12/04 03:03:57;;;;;;;39.45;13.82;;;0.30;99.90;;;;;;4234478;28;20105;-84
2022/12/04 03:06:04;;;;;;;36.53;13.98;;;1.30;99.90;;;;;;4253227;27;20043;-84
2022/12/04 03:08:11;;;;;;;38.92;14.68;;;0.60;99.90;;;;;;4217564;28;20080;-84
2022/12/04 03:10:37;;;;;;;40.65;13.48;;;0.20;99.90;;;;;;4218403;28;20103;-84
2022/12/04 03:12:40;;;;;;;43.22;14.60;;;0.10;99.90;;;;;;4252640;27;20039;-84
2022/12/04 03:14:50;;;;;;;36.40;13.63;;;0.20;99.90;;;;;;4252685;27;20039;-84
2022/12/04 03:16:57;;;;;;;38.53;15.27;;;0.20;99.90;;;;;;4216998;28;20082;-84
2022/12/04 03:19:18;;;;;;;38.55;14.48;;;0.40;99.90;;;;;;4218167;28;20091;-83
2022/12/04 03:21:25;;;;;;;38.35;13.77;;;0.20;99.90;;;;;;4217666;28;20055;-83
2022/12/04 03:23:53;;;;;;;43.30;15.13;;;0.90;99.90;;;;;;4254340;27;20119;-84
2022/12/04 03:26:03;;;;;;;39.80;14.32;;;0.20;99.90;;;;;;4254287;27;20070;-83
2022/12/04 03:28:12;;;;;;;41.70;15.13;;;0.10;99.90;;;;;;4254548;27;20057;-83
2022/12/04 03:30:20;;;;;;;45.38;15.85;;;1.40;99.90;;;;;;4238005;28;20056;-83
2022/12/04 03:32:42;;;;;;;43.22;15.18;;;0.20;99.90;;;;;;4220378;28;20059;-83
2022/12/04 03:34:50;;;;;;;39.63;14.88;;;0.10;99.90;;;;;;4255636;27;20040;-83
2022/12/04 03:36:57;;;;;;;37.30;15.52;;;0.20;99.90;;;;;;4235028;28;20434;-83
2022/12/04 03:39:12;;;;;;;44.17;15.05;;;0.20;99.90;;;;;;4252464;27;20039;-83
2022/12/04 03:41:44;;;;;;;45.85;15.85;;;1.40;99.90;;;;;;4233662;28;20047;-83
2022/12/04 03:44:10;;;;;;;44.10;15.27;;;0.20;99.90;;;;;;4217667;28;20080;-84
2022/12/04 03:46:51;;;;;;;39.50;14.68;;;0.20;99.90;;;;;;4243409;27;20076;-84
2022/12/04 03:49:27;;;;;;;43.88;16.90;;;0.20;99.90;;;;;;4234714;28;20055;-83
2022/12/04 03:51:42;;;;;;;39.03;14.93;;;0.20;99.90;;;;;;4214125;28;20408;-83
2022/12/04 03:53:53;;;;;;;50.30;18.08;;;0.20;99.90;;;;;;4253094;27;20039;-84
2022/12/04 03:56:06;;;;;;;44.05;16.08;;;-0.20;99.90;;;;;;4253185;27;20039;-84
2022/12/04 03:58:14;;;;;;;44.78;15.90;;;0.30;99.90;;;;;;4252931;27;20487;-85
2022/12/04 04:00:21;;;;;;;40.92;15.73;;;0.10;99.90;;;;;;4219713;28;20081;-83
2022/12/04 04:02:27;;;;;;;41.33;14.82;;;0.10;99.90;;;;;;4254740;27;20061;-82
2022/12/04 04:04:35;;;;;;;42.75;15.02;;;0.20;99.90;;;;;;4253396;27;20043;-84
2022/12/04 04:06:41;;;;;;;44.40;16.23;;;0.40;99.90;;;;;;4219215;28;20515;-83
2022/12/04 04:08:47;;;;;;;45.28;17.08;;;0.20;99.90;;;;;;4233826;28;20043;-83
2022/12/04 04:10:50;;;;;;;45.85;16.30;;;0.20;99.90;;;;;;4251518;28;20046;-84
2022/12/04 04:25:07;;;;;;;43.90;16.98;;;-1.10;99.90;;;;;;4252170;28;20123;-83
2022/12/04 04:27:10;;;;;;;39.63;14.73;;;0.20;99.90;;;;;;4251736;28;20122;-83
2022/12/04 04:29:12;;;;;;;43.08;16.23;;;0.30;99.90;;;;;;4233399;28;20044;-84
2022/12/04 04:31:26;;;;;;;42.83;15.80;;;0.10;99.90;;;;;;4233499;28;20044;-84
2022/12/04 04:33:29;;;;;;;45.80;15.38;;;0.10;99.90;;;;;;4252185;28;20092;-84
2022/12/04 04:35:41;;;;;;;39.88;14.80;;;0.10;99.90;;;;;;4216957;28;20086;-84
2022/12/04 04:38:04;;;;;;;42.20;15.25;;;0.10;99.90;;;;;;4252209;28;20053;-85
2022/12/04 04:40:25;;;;;;;44.70;16.80;;;0.80;99.90;;;;;;4233173;28;20047;-84
2022/12/04 04:42:31;;;;;;;44.38;16.90;;;0.10;99.90;;;;;;4233268;28;20105;-84
2022/12/04 04:44:51;;;;;;;42.30;16.17;;;0.10;99.90;;;;;;4233973;28;20333;-84
2022/12/04 04:47:00;;;;;;;44.38;15.75;;;1.40;99.90;;;;;;4252401;28;20410;-84
2022/12/04 04:49:04;;;;;;;41.78;15.00;;;1.40;99.90;;;;;;4233441;28;20051;-84
2022/12/04 04:51:07;;;;;;;41.35;15.48;;;1.70;99.90;;;;;;4251283;28;20090;-83
2022/12/04 04:53:16;;;;;;;42.78;15.23;;;0.20;99.90;;;;;;4216201;28;20075;-84
2022/12/04 04:55:19;;;;;;;41.53;15.52;;;0.20;99.90;;;;;;4251224;28;20039;-84
2022/12/04 04:57:28;;;;;;;40.53;15.00;;;0.10;99.90;;;;;;4232924;28;20054;-84
2022/12/04 04:59:30;;;;;;;46.53;16.30;;;1.50;99.90;;;;;;4216431;28;20044;-84
2022/12/04 05:01:32;;;;;;;41.33;17.02;;;0.20;99.90;;;;;;4233026;28;20488;-84
2022/12/04 05:03:35;;;;;;;46.67;17.33;;;1.40;99.90;;;;;;4251161;28;20040;-84
2022/12/04 05:05:37;;;;;;;45.33;15.40;;;0.10;99.90;;;;;;4215879;28;20051;-84
2022/12/04 05:07:38;;;;;;;49.97;17.67;;;0.70;99.90;;;;;;4251438;28;20044;-84
2022/12/04 05:09:39;;;;;;;46.47;16.90;;;0.90;99.90;;;;;;4216124;28;20052;-84
2022/12/04 05:11:40;;;;;;;46.67;16.75;;;1.60;99.90;;;;;;4253159;28;20433;-85
2022/12/04 05:13:43;;;;;;;43.97;18.05;;;0.20;99.90;;;;;;4250664;28;20040;-85
2022/12/04 05:16:00;;;;;;;42.67;15.70;;;0.20;99.90;;;;;;4232860;28;20051;-84
2022/12/04 05:18:01;;;;;;;47.85;16.00;;;-0.40;99.90;;;;;;4232844;28;20051;-84
2022/12/04 05:20:04;;;;;;;46.40;17.27;;;0.20;99.90;;;;;;4235765;28;20100;-84
2022/12/04 05:22:05;;;;;;;42.17;16.45;;;0.30;99.90;;;;;;4253878;27;20118;-84
2022/12/04 05:24:07;;;;;;;44.63;15.07;;;0.30;99.90;;;;;;4219062;28;20074;-84
2022/12/04 05:26:08;;;;;;;39.25;15.98;;;0.20;99.90;;;;;;4253922;27;20040;-85
2022/12/04 05:28:10;;;;;;;41.28;15.43;;;0.20;99.90;;;;;;4257062;27;20414;-85
2022/12/04 05:30:11;;;;;;;39.03;15.98;;;0.30;99.90;;;;;;4235726;28;20519;-84
2022/12/04 05:32:12;;;;;;;44.20;16.67;;;0.20;99.90;;;;;;4254171;27;20051;-84
2022/12/04 05:34:13;;;;;;;42.33;16.10;;;1.80;99.90;;;;;;4253983;27;20418;-84
2022/12/04 05:36:14;;;;;;;42.95;16.27;;;0.40;99.90;;;;;;4253112;27;20035;-84
2022/12/04 05:38:15;;;;;;;46.28;16.98;;;0.10;99.90;;;;;;4235655;28;20399;-84
2022/12/04 05:40:16;;;;;;;42.50;16.17;;;0.20;99.90;;;;;;4235110;28;20122;-84
2022/12/04 05:42:17;;;;;;;43.10;16.33;;;0.20;99.90;;;;;;4253780;27;20099;-84
2022/12/04 05:44:19;;;;;;;41.80;17.58;;;1.40;99.90;;;;;;4253323;27;20043;-83
2022/12/04 05:46:20;;;;;;;38.60;15.48;;;0.30;99.90;;;;;;4218686;28;20535;-83
2022/12/04 05:48:22;;;;;;;46.65;16.73;;;0.30;99.90;;;;;;4253802;27;20443;-84
2022/12/04 05:50:23;;;;;;;40.65;15.50;;;0.20;99.90;;;;;;4234930;28;20109;-84
2022/12/04 05:52:25;;;;;;;40.45;15.35;;;0.40;99.90;;;;;;4253269;27;20043;-83
2022/12/04 05:54:32;;;;;;;44.03;16.73;;;1.30;99.90;;;;;;4253472;27;20509;-84
2022/12/04 05:56:33;;;;;;;42.80;16.80;;;0.30;99.90;;;;;;4253612;27;20384;-84
2022/12/04 05:58:36;;;;;;;43.08;15.55;;;1.80;99.90;;;;;;4253542;27;20039;-84
2022/12/04 06:00:38;;;;;;;46.95;16.70;;;0.30;99.90;;;;;;4218403;28;20515;-84
2022/12/04 06:02:39;;;;;;;40.03;14.52;;;0.20;99.90;;;;;;4253289;27;20047;-85
2022/12/04 06:04:42;;;;;;;45.40;17.65;;;-0.80;99.90;;;;;;4253158;27;20077;-84
2022/12/04 06:06:43;;;;;;;42.63;16.00;;;0.60;99.90;;;;;;4252520;27;20047;-84
2022/12/04 06:08:45;;;;;;;44.97;16.90;;;0.50;99.90;;;;;;4234435;28;20051;-84
2022/12/04 06:10:52;;;;;;;46.95;14.98;;;0.50;99.90;;;;;;4234885;28;20039;-83
2022/12/04 06:12:56;;;;;;;44.13;16.02;;;0.90;99.90;;;;;;4218125;28;20044;-83
2022/12/04 06:14:57;;;;;;;40.78;15.02;;;0.40;99.90;;;;;;4217553;28;20143;-84
2022/12/04 06:16:58;;;;;;;41.67;16.02;;;-0.70;99.90;;;;;;4252432;27;20108;-84
2022/12/04 06:19:02;;;;;;;42.40;15.88;;;-0.10;99.90;;;;;;4217224;28;20055;-85
2022/12/04 06:21:03;;;;;;;44.72;16.38;;;1.80;99.90;;;;;;4252253;27;20067;-85
2022/12/04 06:23:05;;;;;;;39.00;15.60;;;0.50;99.90;;;;;;4234114;28;20124;-83
2022/12/04 06:25:06;;;;;;;41.90;16.20;;;0.50;99.90;;;;;;4233810;28;20110;-83
2022/12/04 06:27:07;;;;;;;43.58;15.40;;;0.40;99.90;;;;;;4234437;28;20044;-83
2022/12/04 06:29:10;;;;;;;48.47;16.88;;;1.00;99.90;;;;;;4233503;28;20044;-84
2022/12/04 06:31:14;;;;;;;40.83;14.30;;;1.70;99.90;;;;;;4232563;28;20077;-84
2022/12/04 06:33:15;;;;;;;45.40;16.83;;;0.50;99.90;;;;;;4234297;28;20129;-84
2022/12/04 06:35:16;;;;;;;41.33;15.93;;;0.50;99.90;;;;;;4217478;28;20087;-84
2022/12/04 06:37:17;;;;;;;40.40;15.90;;;;;;;;;;4252137;27;20372;-84
2022/12/04 06:39:19;;;;;;;45.40;18.25;;;0.50;99.90;;;;;;4233946;28;20039;-83
2022/12/04 06:41:21;;;;;;;43.50;14.90;;;1.60;99.90;;;;;;4234043;28;20401;-83
2022/12/04 06:43:24;;;;;;;42.28;14.98;;;0.60;99.90;;;;;;4252812;27;20047;-83
2022/12/04 06:45:24;;;;;;;50.92;16.40;;;0.50;99.90;;;;;;4234104;28;20258;-84
2022/12/04 06:47:27;;;;;;;41.47;15.05;;;2.00;99.90;;;;;;4251731;27;20043;-84
2022/12/04 06:49:29;;;;;;;41.63;17.52;;;0.70;99.90;;;;;;4233716;28;20069;-84
2022/12/04 06:51:34;;;;;;;45.40;16.92;;;-0.40;99.90;;;;;;4216278;28;20098;-84
2022/12/04 06:53:36;;;;;;;41.75;16.27;;;1.10;99.90;;;;;;4234249;28;20039;-84
2022/12/04 06:55:45;;;;;;;46.55;15.65;;;1.30;99.90;;;;;;4233740;28;20047;-83
2022/12/04 06:57:46;;;;;;;41.67;15.82;;;1.30;99.90;;;;;;4233998;28;20048;-84
2022/12/04 06:59:48;;;;;;;43.88;16.13;;;0.60;99.90;;;;;;4252545;27;20092;-84
2022/12/04 07:01:49;;;;;;;42.10;16.73;;;0.60;99.90;;;;;;4252129;27;20616;-84
2022/12/04 07:03:51;;;;;;;45.88;17.30;;;0.50;99.90;;;;;;4253081;27;20506;-84
2022/12/04 07:05:54;;;;;;;43.97;16.33;;;0.90;99.90;;;;;;4253193;27;20423;-83
2022/12/04 07:07:55;;;;;;;44.28;15.65;;;1.80;99.90;;;;;;4252066;27;20259;-83
2022/12/04 07:09:56;;;;;;;45.08;16.20;;;0.60;99.90;;;;;;4234093;28;20104;-83
2022/12/04 07:11:58;;;;;;;41.22;15.10;;;0.50;99.90;;;;;;4252237;27;20039;-84
2022/12/04 07:14:00;;;;;;;40.13;16.42;;;1.00;99.90;;;;;;4217197;28;20056;-84
2022/12/04 07:16:04;;;;;;;45.58;16.83;;;0.60;99.90;;;;;;4251805;27;20039;-84
2022/12/04 07:18:06;;;;;;;43.25;15.85;;;-0.10;99.90;;;;;;4233972;28;20467;-84
2022/12/04 07:20:07;;;;;;;50.55;17.63;;;0.60;99.90;;;;;;4233712;28;20065;-83
2022/12/04 07:22:09;;;;;;;39.65;14.82;;;0.60;99.90;;;;;;4233460;28;20047;-84
2022/12/04 07:24:15;;;;;;;38.78;16.08;;;1.40;99.90;;;;;;4253008;27;20096;-83
2022/12/04 07:26:16;;;;;;;41.63;15.95;;;0.60;99.90;;;;;;4252232;27;20076;-84
2022/12/04 07:28:18;;;;;;;41.45;15.95;;;0.60;99.90;;;;;;4252070;27;20036;-84
2022/12/04 07:30:18;;;;;;;40.65;15.00;;;0.60;99.90;;;;;;4254121;27;20043;-84
2022/12/04 07:32:19;;;;;;;41.83;15.88;;;0.70;99.90;;;;;;4253733;27;20114;-84
2022/12/04 07:34:21;;;;;;;49.55;18.10;;;2.20;99.90;;;;;;4235973;28;20447;-84
2022/12/04 07:36:23;;;;;;;41.13;15.38;;;0.60;99.90;;;;;;4254361;27;20039;-84
2022/12/04 07:38:29;;;;;;;36.25;14.23;;;0.70;99.90;;;;;;4235868;28;20047;-84
2022/12/04 07:40:30;;;;;;;43.08;16.23;;;0.70;99.90;;;;;;4253967;27;20088;-83
2022/12/04 07:42:31;;;;;;;40.50;15.07;;;;;;;;;;4218494;28;20480;-83
2022/12/04 07:44:32;;;;;;;40.80;15.55;;;0.70;99.90;;;;;;4235640;28;20044;-84
2022/12/04 07:46:36;;;;;;;39.53;15.90;;;0.40;99.90;;;;;;4217905;28;20098;-83
2022/12/04 07:48:38;;;;;;;41.30;15.48;;;1.10;99.90;;;;;;4233780;28;20051;-83
2022/12/04 07:50:39;;;;;;;42.28;16.20;;;0.70;99.90;;;;;;4232515;28;20059;-84
2022/12/04 07:52:41;;;;;;;39.17;16.70;;;1.80;99.90;;;;;;4216437;28;20488;-84
2022/12/04 07:54:42;;;;;;;44.30;16.55;;;1.20;99.90;;;;;;4216643;28;20392;-84
2022/12/04 07:56:43;;;;;;;40.78;15.57;;;1.60;99.90;;;;;;4233408;28;20085;-83
2022/12/04 07:58:49;;;;;;;41.75;15.23;;;1.10;99.90;;;;;;4233703;28;20470;-84
2022/12/04 08:00:51;;;;;;;39.58;15.25;;;2.00;99.90;;;;;;4252385;27;20097;-84
2022/12/04 08:02:53;;;;;;;45.63;15.60;;;0.80;99.90;;;;;;4216604;28;20539;-83
2022/12/04 08:05:00;;;;;;;44.80;15.18;;;0.70;99.90;;;;;;4233392;28;20044;-84
2022/12/04 08:07:00;;;;;;;40.97;15.02;;;0.60;99.90;;;;;;4251615;28;20035;-84
2022/12/04 08:09:04;;;;;;;45.35;17.52;;;0.80;99.90;;;;;;4251573;28;20547;-84
2022/12/04 08:11:12;;;;;;;45.05;15.90;;;0.80;99.90;;;;;;4251485;28;20047;-84
2022/12/04 08:13:14;;;;;;;42.53;16.70;;;0.70;99.90;;;;;;4215865;28;20117;-85
2022/12/04 08:15:16;;;;;;;43.33;14.93;;;2.00;99.90;;;;;;4233236;28;20047;-84
2022/12/04 08:17:18;;;;;;;41.47;14.10;;;0.80;99.90;;;;;;4232918;28;20098;-84
2022/12/04 08:19:21;;;;;;;41.58;15.63;;;0.90;99.90;;;;;;4233357;28;20077;-84
2022/12/04 08:21:25;;;;;;;38.47;15.10;;;2.10;99.90;;;;;;4251007;28;20050;-84
2022/12/04 08:23:25;;;;;;;38.95;15.18;;;0.90;99.90;;;;;;4250978;28;20046;-84
2022/12/04 08:25:27;;;;;;;41.53;15.20;;;0.90;99.90;;;;;;4251205;28;20043;-84
2022/12/04 08:27:29;;;;;;;44.50;15.27;;;-0.40;99.90;;;;;;4251483;28;20096;-84
2022/12/04 08:29:31;;;;;;;38.60;14.73;;;1.00;99.90;;;;;;4216207;28;20052;-84
2022/12/04 08:31:34;;;;;;;35.13;14.68;;;0.90;99.90;;;;;;4216742;28;20056;-84
2022/12/04 08:33:36;;;;;;;38.15;14.60;;;1.50;99.90;;;;;;4235363;28;20053;-84
2022/12/04 08:35:37;;;;;;;39.40;14.48;;;-0.30;99.90;;;;;;4252506;28;20050;-84
2022/12/04 08:37:39;;;;;;;35.58;13.40;;;-0.20;99.90;;;;;;4218682;28;20412;-84
2022/12/04 08:39:41;;;;;;;41.55;14.35;;;1.60;99.90;;;;;;4218072;28;20188;-84
2022/12/04 08:41:42;;;;;;;37.92;14.93;;;0.70;99.90;;;;;;4254018;28;20043;-84
2022/12/04 08:43:44;;;;;;;34.33;13.80;;;2.50;99.90;;;;;;4235105;28;20075;-84
2022/12/04 08:46:00;;;;;;;35.78;14.27;;;0.00;99.90;;;;;;4234674;28;20063;-84
2022/12/04 08:48:01;;;;;;;38.13;15.38;;;0.90;99.90;;;;;;4215949;28;20545;-83
2022/12/04 08:50:02;;;;;;;36.72;15.95;;;2.20;99.90;;;;;;4232451;28;20211;-84
2022/12/04 08:52:03;;;;;;;35.45;13.38;;;0.90;99.90;;;;;;4232891;28;20039;-84
2022/12/04 08:54:06;;;;;;;38.17;14.77;;;1.00;99.90;;;;;;4251313;27;20108;-83
2022/12/04 08:56:07;;;;;;;37.70;14.75;;;1.20;99.90;;;;;;4218907;28;20047;-83
2022/12/04 08:58:08;;;;;;;38.72;14.27;;;1.70;99.90;;;;;;4253014;27;20039;-83
2022/12/04 09:00:11;;;;;;;37.05;13.27;;;2.00;99.90;;;;;;4218417;28;20135;-83
2022/12/04 09:02:15;;;;;;;43.63;13.70;;;1.10;99.90;;;;;;4235365;28;20043;-83
2022/12/04 09:04:16;;;;;;;37.40;13.15;;;1.10;99.90;;;;;;4218882;28;20055;-83
2022/12/04 09:06:18;;;;;;;38.75;14.20;;;1.10;99.90;;;;;;4253665;27;20100;-83
2022/12/04 09:08:19;;;;;;;34.42;13.85;;;1.20;99.90;;;;;;4234817;28;20044;-84
2022/12/04 09:10:21;;;;;;;34.58;13.27;;;1.20;99.90;;;;;;4253864;27;20082;-83
2022/12/04 09:12:23;;;;;;;33.83;13.85;;;1.60;99.90;;;;;;4235449;28;20056;-84
2022/12/04 09:14:24;;;;;;;33.17;12.80;;;1.20;99.90;;;;;;4235435;28;20079;-84
2022/12/04 09:16:26;;;;;;;33.17;12.90;;;1.90;99.90;;;;;;4253212;27;20047;-84
2022/12/04 09:18:28;;;;;;;33.47;13.05;;;1.40;99.90;;;;;;4252366;27;20062;-84
2022/12/04 09:20:28;;;;;;;35.83;15.32;;;1.30;99.90;;;;;;4218450;28;20059;-84
2022/12/04 09:22:35;;;;;;;37.97;13.02;;;1.40;99.90;;;;;;4253553;27;20043;-84
2022/12/04 09:24:37;;;;;;;33.42;13.07;;;1.30;99.90;;;;;;4235022;28;20072;-84
2022/12/04 09:26:40;;;;;;;33.85;13.93;;;1.60;99.90;;;;;;4218117;28;20040;-83
2022/12/04 09:28:47;;;;;;;32.85;13.20;;;1.30;99.90;;;;;;4256912;27;20100;-83
2022/12/04 09:31:01;;;;;;;33.65;12.65;;;0.60;99.90;;;;;;4235941;28;20040;-83
2022/12/04 09:33:03;;;;;;;33.85;14.40;;;1.50;99.90;;;;;;4253681;27;20035;-84
2022/12/04 09:35:05;;;;;;;37.30;13.68;;;1.40;99.90;;;;;;4253403;27;20054;-84
2022/12/04 09:37:06;;;;;;;40.42;13.43;;;1.40;99.90;;;;;;4217440;28;20059;-83
2022/12/04 09:39:09;;;;;;;31.73;12.25;;;1.50;99.90;;;;;;4253100;27;20498;-83
2022/12/04 09:41:35;;;;;;;34.28;13.88;;;2.00;99.90;;;;;;4252765;27;20035;-84
2022/12/04 09:44:01;;;;;;;23.65;9.93;;;1.60;99.90;;;;;;4253084;27;20043;-83
2022/12/04 09:46:10;;;;;;;23.90;10.00;;;1.70;99.90;;;;;;4254307;27;20539;-84
2022/12/04 09:48:11;;;;;;;23.45;9.95;;;1.70;99.90;;;;;;4253778;27;20043;-84
2022/12/04 09:50:28;;;;;;;22.90;9.55;;;1.80;99.90;;;;;;4235137;28;20116;-84
2022/12/04 09:53:00;;;;;;;23.42;9.88;;;1.80;99.90;;;;;;4235825;28;20052;-83
2022/12/04 09:55:04;;;;;;;25.25;10.30;;;1.90;99.90;;;;;;4234613;28;20047;-84
2022/12/04 09:57:23;;;;;;;27.63;10.27;;;1.90;99.90;;;;;;4233177;28;20839;-84
2022/12/04 09:59:26;;;;;;;29.70;12.00;;;2.00;99.90;;;;;;4233651;28;20052;-85
2022/12/04 10:01:40;;;;;;;25.98;10.38;;;2.00;99.90;;;;;;4233076;28;20071;-84
2022/12/04 10:03:42;;;;;;;27.23;10.95;;;2.00;99.90;;;;;;4234618;28;20036;-84
2022/12/04 10:05:52;;;;;;;31.02;11.38;;;2.20;99.90;;;;;;4234768;28;20047;-83
2022/12/04 10:08:06;;;;;;;30.50;12.48;;;2.00;99.90;;;;;;4234668;28;20052;-84
2022/12/04 10:10:20;;;;;;;26.35;10.32;;;2.10;99.90;;;;;;4232998;28;20567;-84
2022/12/04 10:12:46;;;;;;;24.98;10.40;;;2.10;99.90;;;;;;4234807;28;20048;-84
2022/12/04 10:14:49;;;;;;;26.48;10.70;;;2.80;99.90;;;;;;4233307;28;20058;-84
2022/12/04 10:17:05;;;;;;;25.67;10.85;;;2.10;99.90;;;;;;4216395;28;20582;-84
2022/12/04 10:19:20;;;;;;;27.77;10.88;;;2.10;99.90;;;;;;4233277;28;20413;-84
2022/12/04 10:21:41;;;;;;;26.45;11.50;;;2.10;99.90;;;;;;4232541;28;20044;-84
2022/12/04 10:24:09;;;;;;;27.95;10.25;;;2.20;99.90;;;;;;4215866;28;20044;-84
2022/12/04 10:26:15;;;;;;;21.73;8.70;;;2.20;99.90;;;;;;4234133;28;20377;-85
2022/12/04 10:28:32;;;;;;;24.65;9.80;;;3.00;99.90;;;;;;4216227;28;20052;-84
2022/12/04 10:30:36;;;;;;;27.48;9.63;;;2.20;99.90;;;;;;4233278;28;20044;-84
2022/12/04 10:32:47;;;;;;;23.67;9.30;;;2.20;99.90;;;;;;4216011;28;20055;-83
2022/12/04 10:34:52;;;;;;;24.58;8.90;;;2.30;99.90;;;;;;4232320;28;20047;-84
2022/12/04 10:37:01;;;;;;;21.15;8.63;;;2.30;99.90;;;;;;4216774;28;20113;-85
2022/12/04 10:39:13;;;;;;;22.63;9.25;;;2.30;99.90;;;;;;4234179;28;20045;-84
2022/12/04 10:41:47;;;;;;;23.20;8.90;;;2.40;99.90;;;;;;4232762;28;20513;-84
2022/12/04 10:43:49;;;;;;;21.77;8.70;;;2.30;99.90;;;;;;4233026;28;20048;-85
2022/12/04 10:45:51;;;;;;;20.10;9.07;;;2.30;99.90;;;;;;4233693;28;20040;-84
2022/12/04 10:47:53;;;;;;;18.60;8.30;;;2.30;99.90;;;;;;4215728;28;20079;-84
2022/12/04 10:49:59;;;;;;;18.23;7.20;;;2.40;99.90;;;;;;4235150;27;20073;-84
2022/12/04 10:52:00;;;;;;;17.83;7.28;;;2.40;99.90;;;;;;4250652;27;20039;-84
2022/12/04 10:54:28;;;;;;;16.75;6.93;;;2.40;99.90;;;;;;4232458;28;20067;-84
2022/12/04 10:56:30;;;;;;;19.80;7.22;;;2.70;99.90;;;;;;4218665;28;20051;-85
2022/12/04 10:58:32;;;;;;;22.83;8.50;;;2.40;99.90;;;;;;4251551;27;20049;-84
2022/12/04 11:00:34;;;;;;;19.98;8.10;;;2.40;99.90;;;;;;4251091;27;20039;-84